Time;durP1;ratioP1;P1;durP2;ratioP2;P2;SDS_P1;SDS_P2;PMS_P1;PMS_P2;Temp;Humidity;BMP_temperature;BMP_pressure;BME280_temperature;BME280_humidity;BME280_pressure;Samples;Min_cycle;Max_cycle;Signal;HPM_P1;HPM_P2
2022/06/01 00:01:22;;;;;;;5.57;3.50;;;8.90;99.90;;;;;;5049570;28;20684;-72
2022/06/01 00:03:48;;;;;;;5.95;4.18;;;8.70;99.90;;;;;;5049535;28;20025;-73
2022/06/01 00:06:14;;;;;;;5.38;3.58;;;8.70;99.90;;;;;;5048147;28;20415;-71
2022/06/01 00:08:41;;;;;;;6.88;4.55;;;8.70;99.90;;;;;;5049200;28;20141;-71
2022/06/01 00:11:07;;;;;;;5.95;4.30;;;8.70;99.90;;;;;;5048201;28;20037;-72
2022/06/01 00:13:34;;;;;;;7.68;5.10;;;8.70;99.90;;;;;;5048034;28;20072;-73
2022/06/01 00:16:00;;;;;;;6.40;4.45;;;8.80;99.90;;;;;;5048500;28;20037;-72
2022/06/01 00:18:26;;;;;;;7.10;5.03;;;8.80;99.90;;;;;;5049019;28;20087;-72
2022/06/01 00:20:52;;;;;;;7.25;5.03;;;8.80;99.90;;;;;;5049176;28;20462;-74
2022/06/01 00:23:19;;;;;;;7.20;5.30;;;8.80;99.90;;;;;;5048057;28;20025;-73
2022/06/01 00:25:45;;;;;;;8.55;5.20;;;8.80;99.90;;;;;;5049063;28;20510;-73
2022/06/01 00:28:11;;;;;;;7.45;5.18;;;8.90;99.90;;;;;;5048994;28;20025;-72
2022/06/01 00:30:37;;;;;;;7.18;5.38;;;8.80;99.90;;;;;;5049201;28;20360;-71
2022/06/01 00:33:03;;;;;;;8.05;5.50;;;8.80;99.90;;;;;;5048848;28;20033;-73
2022/06/01 00:35:29;;;;;;;5.95;4.53;;;8.80;99.90;;;;;;5062073;28;20085;-77
2022/06/01 00:37:55;;;;;;;6.38;4.90;;;8.70;99.90;;;;;;5068622;28;20075;-73
2022/06/01 00:40:28;;;;;;;6.15;4.63;;;8.70;99.90;;;;;;5068741;28;20088;-72
2022/06/01 00:42:59;;;;;;;6.38;4.55;;;8.60;99.90;;;;;;5050864;28;20032;-72
2022/06/01 00:45:28;;;;;;;6.47;5.20;;;8.60;99.90;;;;;;5068767;28;20036;-71
2022/06/01 00:47:54;;;;;;;7.28;5.57;;;8.60;99.90;;;;;;5047092;28;20067;-73
2022/06/01 00:50:25;;;;;;;7.95;4.97;;;8.50;99.90;;;;;;5068651;28;20039;-72
2022/06/01 00:52:57;;;;;;;7.18;5.25;;;8.50;99.90;;;;;;5050899;28;20032;-72
2022/06/01 00:55:34;;;;;;;7.40;4.72;;;8.40;99.90;;;;;;5068755;28;20055;-73
2022/06/01 00:58:10;;;;;;;7.15;4.85;;;8.30;99.90;;;;;;5068652;28;20033;-72
2022/06/01 01:00:42;;;;;;;6.20;4.78;;;8.10;99.90;;;;;;5050257;28;20024;-72
2022/06/01 01:03:10;;;;;;;5.60;4.35;;;8.00;99.90;;;;;;5037922;28;20030;-72
2022/06/01 01:05:39;;;;;;;7.32;5.07;;;8.00;99.90;;;;;;5027074;28;20065;-72
2022/06/01 01:08:05;;;;;;;5.68;4.30;;;8.00;99.90;;;;;;5028407;28;20056;-75
2022/06/01 01:10:32;;;;;;;7.25;4.70;;;8.00;99.90;;;;;;5028297;28;20045;-72
2022/06/01 01:13:01;;;;;;;6.18;4.20;;;8.00;99.90;;;;;;5028440;28;20040;-72
2022/06/01 01:15:31;;;;;;;8.13;4.57;;;7.90;99.90;;;;;;5010417;28;20029;-71
2022/06/01 01:17:59;;;;;;;6.60;5.07;;;7.90;99.90;;;;;;5028399;28;20272;-71
2022/06/01 01:20:26;;;;;;;6.13;4.47;;;7.80;99.90;;;;;;5028489;28;20120;-71
2022/06/01 01:23:05;;;;;;;6.25;4.63;;;7.90;99.90;;;;;;5010646;28;20095;-73
2022/06/01 01:25:38;;;;;;;5.55;4.20;;;7.90;99.90;;;;;;5028691;28;20136;-71
2022/06/01 01:28:06;;;;;;;5.68;3.78;;;7.90;99.90;;;;;;5035253;28;20045;-71
2022/06/01 01:30:38;;;;;;;5.68;3.30;;;7.90;99.90;;;;;;5034769;28;20471;-71
2022/06/01 01:33:03;;;;;;;4.78;3.40;;;7.90;99.90;;;;;;5034753;28;20048;-71
2022/06/01 01:35:29;;;;;;;4.43;3.42;;;7.70;99.90;;;;;;5034750;28;20030;-73
2022/06/01 01:37:57;;;;;;;6.35;3.58;;;7.60;99.90;;;;;;5035142;28;20038;-71
2022/06/01 01:40:25;;;;;;;4.95;3.60;;;7.60;99.90;;;;;;5034986;28;20858;-73
2022/06/01 01:42:55;;;;;;;4.70;3.35;;;7.40;99.90;;;;;;5035076;28;20040;-73
2022/06/01 01:45:23;;;;;;;;;;;7.30;99.90;;;;;;5038167;28;20704;-72
2022/06/01 01:47:49;;;;;;;4.93;3.60;;;7.30;99.90;;;;;;5054692;28;19913;-72
2022/06/01 01:50:15;;;;;;;5.47;3.65;;;7.30;99.90;;;;;;5054764;28;20039;-72
2022/06/01 01:52:41;;;;;;;10.85;4.57;;;7.20;99.90;;;;;;5054510;28;20037;-72
2022/06/01 01:55:33;;;;;;;5.65;4.05;;;7.20;99.90;;;;;;5055002;28;20051;-71
2022/06/01 01:58:34;;;;;;;10.23;4.85;;;7.10;99.90;;;;;;5054717;28;20040;-75
2022/06/01 02:01:15;;;;;;;8.55;4.55;;;7.10;99.90;;;;;;5020616;28;20049;-72
2022/06/01 02:06:03;;;;;;;8.18;4.90;;;7.00;99.90;;;;;;5054616;28;20394;-74
2022/06/01 02:06:53;;;;;;;5.57;4.10;;;7.00;99.90;;;;;;5054688;28;20087;-74
2022/06/01 02:09:19;;;;;;;5.47;4.10;;;7.00;99.90;;;;;;5054654;28;20032;-71
2022/06/01 02:14:42;;;;;;;6.10;4.50;;;6.90;99.90;;;;;;5054414;28;20044;-73
2022/06/01 02:17:15;;;;;;;5.80;4.05;;;6.90;99.90;;;;;;5054581;28;20049;-71
2022/06/01 02:19:58;;;;;;;6.47;4.32;;;6.90;99.90;;;;;;5054410;28;20048;-74
2022/06/01 02:22:24;;;;;;;5.45;3.88;;;6.90;99.90;;;;;;5053013;28;20495;-71
2022/06/01 02:24:49;;;;;;;6.45;4.93;;;6.90;99.90;;;;;;5053114;28;20043;-71
2022/06/01 02:27:17;;;;;;;5.80;4.20;;;7.00;99.90;;;;;;5054383;28;20105;-71
2022/06/01 02:29:52;;;;;;;6.78;3.70;;;7.00;99.90;;;;;;5052886;28;20032;-72
2022/06/01 02:32:18;;;;;;;8.15;4.70;;;6.90;99.90;;;;;;5054236;28;20036;-71
2022/06/01 02:34:46;;;;;;;5.90;4.35;;;6.80;99.90;;;;;;5053002;28;20123;-70
2022/06/01 02:37:14;;;;;;;6.55;5.00;;;6.70;99.90;;;;;;5053700;28;20041;-70
2022/06/01 02:39:42;;;;;;;7.78;5.80;;;6.70;99.90;;;;;;5050500;28;20056;-72
2022/06/01 02:42:30;;;;;;;6.38;4.70;;;6.70;99.90;;;;;;5049442;28;20065;-72
2022/06/01 02:44:59;;;;;;;5.95;4.05;;;6.70;99.90;;;;;;5050957;28;20057;-71
2022/06/01 02:47:26;;;;;;;6.38;4.03;;;6.80;99.90;;;;;;5038286;28;20036;-72
2022/06/01 02:49:53;;;;;;;7.63;4.43;;;6.80;99.90;;;;;;5032735;28;20483;-72
2022/06/01 02:52:19;;;;;;;6.13;4.70;;;6.80;99.90;;;;;;5028241;28;20036;-72
2022/06/01 02:54:44;;;;;;;6.25;4.78;;;6.90;99.90;;;;;;5030389;28;20045;-73
2022/06/01 02:57:10;;;;;;;7.78;5.50;;;7.00;99.90;;;;;;5030559;28;20057;-71
2022/06/01 02:59:36;;;;;;;7.30;4.90;;;7.00;99.90;;;;;;5031038;28;20125;-72
2022/06/01 03:02:03;;;;;;;6.38;5.13;;;7.10;99.90;;;;;;5029571;28;20472;-73
2022/06/01 03:04:29;;;;;;;6.57;4.78;;;7.10;99.90;;;;;;5030624;28;20060;-72
2022/06/01 03:06:55;;;;;;;6.57;4.85;;;7.10;99.90;;;;;;5030593;28;20115;-72
2022/06/01 03:09:21;;;;;;;8.68;4.38;;;7.10;99.90;;;;;;5030516;28;20029;-72
2022/06/01 03:11:46;;;;;;;6.45;4.30;;;7.10;99.90;;;;;;5012159;28;20132;-73
2022/06/01 03:14:12;;;;;;;7.38;5.47;;;7.00;99.90;;;;;;5030639;28;20159;-72
2022/06/01 03:16:38;;;;;;;6.95;5.00;;;7.00;99.90;;;;;;5030586;28;20069;-72
2022/06/01 03:19:05;;;;;;;6.10;4.43;;;7.00;99.90;;;;;;5012628;28;20037;-71
2022/06/01 03:21:31;;;;;;;6.25;4.40;;;7.00;99.90;;;;;;5012469;28;20040;-71
2022/06/01 03:23:56;;;;;;;5.40;4.10;;;7.00;99.90;;;;;;5030281;28;20029;-72
2022/06/01 03:26:23;;;;;;;6.65;5.00;;;7.00;99.90;;;;;;5030231;28;20048;-73
2022/06/01 03:28:49;;;;;;;7.32;4.90;;;6.90;99.90;;;;;;5030196;28;20160;-71
2022/06/01 03:31:15;;;;;;;6.40;5.15;;;6.90;99.90;;;;;;5012449;28;20128;-72
2022/06/01 03:33:41;;;;;;;6.97;4.80;;;6.80;99.90;;;;;;5030207;28;20052;-72
2022/06/01 03:36:08;;;;;;;6.15;4.30;;;6.80;99.90;;;;;;5030065;28;20061;-74
2022/06/01 03:38:33;;;;;;;7.82;4.78;;;6.80;99.90;;;;;;5012014;28;20033;-74
2022/06/01 03:40:59;;;;;;;5.47;3.88;;;6.80;99.90;;;;;;5029676;28;20068;-72
2022/06/01 03:43:25;;;;;;;5.03;3.80;;;6.70;99.90;;;;;;5030113;28;20396;-73
2022/06/01 03:45:57;;;;;;;5.72;3.40;;;6.70;99.90;;;;;;5030938;28;20104;-71
2022/06/01 03:48:32;;;;;;;5.72;3.70;;;6.70;99.90;;;;;;5047535;28;20371;-71
2022/06/01 03:50:58;;;;;;;4.57;3.15;;;6.70;99.90;;;;;;5048623;28;20079;-71
2022/06/01 03:53:25;;;;;;;5.97;4.25;;;6.70;99.90;;;;;;5048288;28;20035;-71
2022/06/01 03:55:52;;;;;;;5.60;3.97;;;6.70;99.90;;;;;;5049475;28;20540;-72
2022/06/01 03:58:22;;;;;;;5.85;4.40;;;6.70;99.90;;;;;;5049645;28;20029;-72
2022/06/01 04:00:49;;;;;;;5.60;4.18;;;6.70;99.90;;;;;;5048211;28;20025;-72
2022/06/01 04:03:16;;;;;;;5.30;3.75;;;6.70;99.90;;;;;;5049886;28;20143;-73
2022/06/01 04:05:42;;;;;;;7.03;4.38;;;6.50;99.90;;;;;;5028129;28;20064;-70
2022/06/01 04:08:08;;;;;;;5.80;4.43;;;6.40;99.90;;;;;;5029621;28;20033;-73
2022/06/01 04:10:36;;;;;;;6.78;4.43;;;6.30;99.90;;;;;;5027799;28;20417;-71
2022/06/01 04:13:03;;;;;;;5.78;4.07;;;6.20;99.90;;;;;;5029243;28;20053;-71
2022/06/01 04:15:29;;;;;;;7.13;4.82;;;6.20;99.90;;;;;;5029293;28;20500;-72
2022/06/01 04:17:54;;;;;;;7.35;4.65;;;6.20;99.90;;;;;;5029334;28;20048;-72
2022/06/01 04:20:20;;;;;;;7.70;5.57;;;6.20;99.90;;;;;;5029185;28;20798;-72
2022/06/01 04:22:46;;;;;;;6.28;4.30;;;6.20;99.90;;;;;;5028994;28;20040;-71
2022/06/01 04:25:17;;;;;;;6.18;4.50;;;6.30;99.90;;;;;;5028861;28;20073;-73
2022/06/01 04:27:44;;;;;;;7.53;5.05;;;6.30;99.90;;;;;;5028728;28;20087;-72
2022/06/01 04:30:13;;;;;;;7.00;4.80;;;6.30;99.90;;;;;;5027616;28;20128;-70
2022/06/01 04:32:39;;;;;;;6.60;4.75;;;6.30;99.90;;;;;;5029017;28;20060;-73
2022/06/01 04:35:06;;;;;;;10.07;5.75;;;6.30;99.90;;;;;;5028759;28;20052;-73
2022/06/01 04:37:32;;;;;;;7.82;4.90;;;6.40;99.90;;;;;;5027401;28;20029;-71
2022/06/01 04:39:58;;;;;;;7.05;5.10;;;6.40;99.90;;;;;;5024103;28;20595;-73
2022/06/01 04:42:24;;;;;;;7.50;5.00;;;6.50;99.90;;;;;;5009173;28;20156;-71
2022/06/01 04:44:50;;;;;;;10.80;6.45;;;6.40;99.90;;;;;;5008986;28;20477;-72
2022/06/01 04:47:15;;;;;;;11.52;7.03;;;6.50;99.90;;;;;;5009327;28;20135;-72
2022/06/01 04:49:41;;;;;;;8.73;6.10;;;6.40;99.90;;;;;;5024048;28;20780;-72
2022/06/01 04:52:07;;;;;;;8.10;5.95;;;6.50;99.90;;;;;;5027241;28;20033;-73
2022/06/01 04:54:33;;;;;;;8.57;5.65;;;6.50;99.90;;;;;;5028870;28;20040;-71
2022/06/01 04:56:59;;;;;;;10.25;6.60;;;6.60;99.90;;;;;;5028832;28;20033;-72
2022/06/01 04:59:25;;;;;;;7.85;5.47;;;6.70;99.90;;;;;;5028587;28;20446;-72
2022/06/01 05:01:51;;;;;;;11.25;6.22;;;6.70;99.90;;;;;;5028174;28;20443;-72
2022/06/01 05:04:17;;;;;;;9.38;6.13;;;6.80;99.90;;;;;;5027168;28;20044;-71
2022/06/01 05:06:42;;;;;;;7.47;5.55;;;6.90;99.90;;;;;;5028598;28;20446;-72
2022/06/01 05:09:08;;;;;;;8.32;6.03;;;6.90;99.90;;;;;;5044042;28;20533;-73
2022/06/01 05:11:34;;;;;;;9.25;6.60;;;6.90;99.90;;;;;;5028697;28;20410;-74
2022/06/01 05:13:59;;;;;;;6.72;5.10;;;7.00;99.90;;;;;;5028287;28;20026;-73
2022/06/01 05:16:26;;;;;;;8.90;6.00;;;7.00;99.90;;;;;;5026946;28;20546;-73
2022/06/01 05:18:52;;;;;;;8.07;5.97;;;7.10;99.90;;;;;;5028190;28;20049;-73
2022/06/01 05:21:17;;;;;;;7.95;5.43;;;7.20;99.90;;;;;;5028367;28;20025;-72
2022/06/01 05:23:43;;;;;;;7.38;6.07;;;7.20;99.90;;;;;;5028450;28;20032;-71
2022/06/01 05:26:09;;;;;;;7.88;5.93;;;7.30;99.90;;;;;;5028212;28;20040;-73
2022/06/01 05:28:35;;;;;;;10.52;6.65;;;7.30;99.90;;;;;;5028490;28;20083;-73
2022/06/01 05:31:07;;;;;;;10.43;7.80;;;7.30;99.90;;;;;;5028545;28;20033;-73
2022/06/01 05:33:33;;;;;;;8.13;6.38;;;7.20;99.90;;;;;;5028303;28;20037;-75
2022/06/01 05:35:59;;;;;;;11.27;6.53;;;7.20;99.90;;;;;;5026853;28;20034;-69
2022/06/01 05:38:25;;;;;;;7.15;5.35;;;7.20;99.90;;;;;;5028231;28;20048;-73
2022/06/01 05:40:51;;;;;;;7.55;5.45;;;7.20;99.90;;;;;;5044920;28;20384;-73
2022/06/01 05:43:18;;;;;;;6.90;4.70;;;7.20;99.90;;;;;;5030234;28;20120;-75
2022/06/01 05:45:44;;;;;;;6.88;4.47;;;7.30;99.90;;;;;;5048071;28;20048;-73
2022/06/01 05:48:12;;;;;;;7.82;5.13;;;7.40;99.90;;;;;;5044537;28;20044;-74
2022/06/01 05:50:38;;;;;;;9.07;5.38;;;7.60;99.90;;;;;;5046782;28;20036;-75
2022/06/01 05:53:04;;;;;;;8.07;5.10;;;7.70;99.90;;;;;;5047449;28;20040;-73
2022/06/01 05:55:31;;;;;;;8.32;5.28;;;7.80;99.90;;;;;;5048753;28;20033;-72
2022/06/01 05:57:57;;;;;;;9.10;5.13;;;7.90;99.90;;;;;;5048849;28;20043;-74
2022/06/01 06:00:23;;;;;;;7.82;4.80;;;8.10;99.90;;;;;;5044375;28;20029;-75
2022/06/01 06:02:49;;;;;;;5.72;4.40;;;8.20;99.90;;;;;;5048539;28;20083;-71
2022/06/01 06:07:59;;;;;;;7.32;4.22;;;8.50;99.90;;;;;;5048338;28;20118;-73
2022/06/01 06:10:26;;;;;;;5.30;3.90;;;8.70;99.90;;;;;;5046938;28;20174;-73
2022/06/01 06:12:53;;;;;;;6.32;3.97;;;8.80;99.90;;;;;;5048960;28;20532;-72
2022/06/01 06:15:19;;;;;;;5.35;3.50;;;8.90;99.90;;;;;;5034019;28;20028;-72
2022/06/01 06:17:45;;;;;;;5.90;4.00;;;9.10;99.90;;;;;;5051735;28;20033;-71
2022/06/01 06:20:11;;;;;;;8.15;3.22;;;9.20;99.90;;;;;;5051347;28;20085;-72
2022/06/01 06:22:37;;;;;;;7.85;3.47;;;9.30;99.90;;;;;;5051466;28;20119;-72
2022/06/01 06:25:03;;;;;;;5.68;2.90;;;9.50;99.90;;;;;;5051546;28;20424;-72
2022/06/01 06:27:29;;;;;;;5.05;3.40;;;9.60;99.90;;;;;;5049693;28;20033;-72
2022/06/01 06:29:55;;;;;;;5.47;3.25;;;9.70;99.90;;;;;;5051120;28;20029;-73
2022/06/01 06:32:21;;;;;;;5.70;3.13;;;9.80;99.90;;;;;;5051462;28;20033;-72
2022/06/01 06:34:47;;;;;;;5.88;3.63;;;9.90;99.80;;;;;;5051359;28;20036;-72
2022/06/01 06:37:13;;;;;;;6.38;3.10;;;9.90;99.60;;;;;;5051146;28;20105;-72
2022/06/01 06:39:39;;;;;;;5.45;3.10;;;10.00;99.30;;;;;;5032793;28;20099;-71
2022/06/01 06:42:05;;;;;;;6.78;3.67;;;10.10;99.40;;;;;;5033068;28;20048;-72
2022/06/01 06:44:33;;;;;;;5.88;3.40;;;10.10;99.60;;;;;;5033011;28;20055;-72
2022/06/01 06:46:59;;;;;;;8.73;3.55;;;10.20;99.40;;;;;;5053409;28;20480;-70
2022/06/01 06:49:25;;;;;;;7.63;3.03;;;10.40;99.20;;;;;;5050601;28;20032;-72
2022/06/01 06:51:51;;;;;;;5.90;3.08;;;10.50;99.20;;;;;;5050745;28;20044;-74
2022/06/01 06:54:18;;;;;;;5.25;2.90;;;10.60;98.80;;;;;;5032655;28;20037;-71
2022/06/01 06:56:44;;;;;;;6.13;2.90;;;10.70;98.60;;;;;;5050588;28;20535;-73
2022/06/01 06:59:12;;;;;;;5.35;3.70;;;10.90;98.70;;;;;;5032688;28;20029;-71
2022/06/01 07:01:38;;;;;;;5.25;2.88;;;11.00;98.50;;;;;;5050551;28;20037;-71
2022/06/01 07:04:04;;;;;;;7.88;2.83;;;11.10;98.00;;;;;;5032759;28;20024;-73
2022/06/01 07:06:30;;;;;;;5.50;3.00;;;11.30;97.30;;;;;;5050539;28;20036;-73
2022/06/01 07:08:56;;;;;;;7.00;3.40;;;11.40;96.90;;;;;;5032433;28;20482;-72
2022/06/01 07:11:25;;;;;;;5.32;2.50;;;11.60;96.70;;;;;;5050337;28;20108;-71
2022/06/01 07:13:51;;;;;;;5.97;2.83;;;11.70;96.40;;;;;;5050596;28;20025;-71
2022/06/01 07:16:20;;;;;;;6.95;3.05;;;11.90;95.60;;;;;;5050342;28;20048;-72
2022/06/01 07:18:50;;;;;;;5.20;2.83;;;12.10;95.20;;;;;;5050299;28;20048;-74
2022/06/01 07:21:17;;;;;;;5.20;2.25;;;12.30;94.40;;;;;;5050441;28;20056;-72
2022/06/01 07:23:44;;;;;;;5.10;2.58;;;12.40;93.80;;;;;;5049819;28;20036;-72
2022/06/01 07:26:16;;;;;;;4.05;2.05;;;12.50;93.20;;;;;;5032280;28;20094;-71
2022/06/01 07:28:41;;;;;;;5.07;2.55;;;12.60;92.90;;;;;;5032287;28;20028;-72
2022/06/01 07:31:07;;;;;;;4.18;2.40;;;12.80;93.10;;;;;;5050337;28;20102;-73
2022/06/01 07:33:34;;;;;;;4.45;2.40;;;12.90;93.30;;;;;;5031864;28;20033;-71
2022/06/01 07:36:03;;;;;;;4.90;2.38;;;12.90;92.30;;;;;;5049904;28;20044;-72
2022/06/01 07:44:14;;;;;;;5.60;2.72;;;12.60;93.20;;;;;;5049747;28;20464;-73
2022/06/01 07:46:39;;;;;;;6.50;2.97;;;12.50;93.40;;;;;;5046212;28;20029;-70
2022/06/01 07:49:08;;;;;;;5.45;2.65;;;12.50;94.40;;;;;;5049810;28;20037;-74
2022/06/01 07:51:38;;;;;;;8.20;2.50;;;12.60;93.90;;;;;;5049806;28;20048;-73
2022/06/01 07:54:04;;;;;;;;;;;12.80;94.10;;;;;;5048796;28;20033;-72
2022/06/01 07:56:30;;;;;;;5.82;2.67;;;13.00;93.80;;;;;;5049724;28;19924;-72
2022/06/01 07:58:55;;;;;;;5.55;2.85;;;13.10;93.10;;;;;;5049831;28;20406;-71
2022/06/01 08:01:25;;;;;;;4.20;2.25;;;13.20;92.70;;;;;;5049401;28;20045;-72
2022/06/01 08:03:56;;;;;;;6.00;2.30;;;13.40;92.50;;;;;;5049695;28;20033;-72
2022/06/01 08:06:23;;;;;;;4.10;2.35;;;13.60;92.30;;;;;;5048307;28;20114;-74
2022/06/01 08:08:49;;;;;;;3.90;2.20;;;13.70;91.30;;;;;;5048150;28;20045;-73
2022/06/01 08:11:15;;;;;;;5.43;2.58;;;13.80;91.40;;;;;;5049390;28;20047;-73
2022/06/01 08:13:41;;;;;;;4.88;2.08;;;13.80;92.00;;;;;;5049570;28;20407;-73
2022/06/01 08:16:06;;;;;;;3.67;2.10;;;13.80;91.00;;;;;;5047662;28;20040;-73
2022/06/01 08:18:32;;;;;;;5.95;2.30;;;13.90;90.60;;;;;;5049494;28;20032;-72
2022/06/01 08:20:58;;;;;;;3.60;2.22;;;14.00;91.30;;;;;;5049321;28;20660;-73
2022/06/01 08:23:26;;;;;;;4.45;1.90;;;14.10;90.30;;;;;;5049176;28;20056;-72
2022/06/01 08:25:52;;;;;;;4.68;2.35;;;14.20;90.20;;;;;;5047878;28;20086;-74
2022/06/01 08:28:18;;;;;;;5.28;2.25;;;14.50;90.00;;;;;;5047935;28;20037;-71
2022/06/01 08:30:44;;;;;;;4.65;2.40;;;14.60;87.90;;;;;;5048624;28;20040;-73
2022/06/01 08:33:10;;;;;;;3.95;2.10;;;14.60;86.30;;;;;;5049101;28;20037;-73
2022/06/01 08:35:39;;;;;;;5.53;2.22;;;14.60;87.90;;;;;;5047138;28;20044;-71
2022/06/01 08:38:06;;;;;;;4.60;1.95;;;14.60;86.40;;;;;;5049069;28;20051;-74
2022/06/01 08:40:59;;;;;;;4.47;1.90;;;14.70;89.20;;;;;;5048723;28;20094;-71
2022/06/01 08:43:34;;;;;;;3.22;1.35;;;14.80;86.70;;;;;;5044542;28;20028;-71
2022/06/01 08:46:01;;;;;;;3.47;1.50;;;15.00;81.50;;;;;;5024319;28;20032;-71
2022/06/01 08:48:49;;;;;;;2.67;1.40;;;15.10;82.30;;;;;;5049193;28;20041;-71
2022/06/01 08:51:19;;;;;;;3.45;1.30;;;15.30;79.70;;;;;;5048599;28;20037;-71
2022/06/01 08:53:45;;;;;;;5.25;1.52;;;15.40;80.20;;;;;;5030979;28;20478;-74
2022/06/01 08:56:18;;;;;;;5.25;1.40;;;15.50;82.10;;;;;;5030759;28;20103;-73
2022/06/01 08:59:00;;;;;;;4.10;1.70;;;15.60;80.60;;;;;;5030535;28;20041;-76
2022/06/01 09:01:52;;;;;;;5.10;1.75;;;15.70;77.10;;;;;;5048577;28;20104;-75
2022/06/01 09:04:40;;;;;;;3.78;1.30;;;15.60;78.90;;;;;;5049240;28;20040;-71
2022/06/01 09:07:44;;;;;;;2.78;1.40;;;15.70;80.30;;;;;;5048491;28;20474;-74
2022/06/01 09:10:44;;;;;;;4.80;1.30;;;15.70;78.50;;;;;;4997115;28;20090;-73
2022/06/01 09:13:23;;;;;;;3.63;1.42;;;15.70;77.00;;;;;;5048237;28;20498;-72
2022/06/01 09:16:03;;;;;;;3.25;1.40;;;15.50;79.00;;;;;;5048235;28;20445;-71
2022/06/01 09:18:36;;;;;;;3.25;1.60;;;15.40;80.80;;;;;;5048105;28;20037;-73
2022/06/01 09:23:46;;;;;;;2.80;1.35;;;15.40;81.40;;;;;;5048347;28;20048;-77
2022/06/01 09:26:28;;;;;;;2.42;1.35;;;15.50;76.10;;;;;;5048216;28;20037;-71
2022/06/01 09:28:58;;;;;;;2.25;0.88;;;15.80;76.20;;;;;;5030278;28;20044;-71
2022/06/01 09:31:36;;;;;;;2.85;1.20;;;15.90;74.80;;;;;;5048041;28;20040;-70
2022/06/01 09:34:35;;;;;;;5.03;1.50;;;15.90;78.30;;;;;;5048438;28;20487;-71
2022/06/01 09:37:22;;;;;;;4.28;1.58;;;15.70;78.40;;;;;;5037278;28;20141;-73
2022/06/01 09:39:57;;;;;;;3.67;1.45;;;15.60;80.40;;;;;;5030488;28;20053;-77
2022/06/01 09:42:25;;;;;;;4.75;1.30;;;15.90;82.00;;;;;;5030028;28;20654;-73
2022/06/01 09:44:54;;;;;;;2.85;1.30;;;16.10;79.20;;;;;;5030174;28;20056;-75
2022/06/01 09:47:40;;;;;;;6.18;1.52;;;16.20;75.80;;;;;;5049465;28;20036;-71
2022/06/01 09:50:33;;;;;;;5.53;1.58;;;16.10;78.20;;;;;;5052276;28;20462;-72
2022/06/01 09:53:12;;;;;;;4.63;1.92;;;16.00;77.30;;;;;;5034154;28;20033;-74
2022/06/01 09:56:00;;;;;;;4.28;1.75;;;15.90;78.90;;;;;;5051921;28;20037;-73
2022/06/01 10:07:17;;;;;;;3.28;1.45;;;15.70;77.20;;;;;;5052009;28;20079;-72
2022/06/01 10:09:56;;;;;;;3.58;1.67;;;15.80;77.10;;;;;;5052340;28;20032;-71
2022/06/01 10:12:44;;;;;;;4.60;1.92;;;15.80;79.10;;;;;;5052469;28;20033;-73
2022/06/01 10:15:46;;;;;;;3.28;1.20;;;15.80;80.50;;;;;;5051690;28;20029;-73
2022/06/01 10:18:23;;;;;;;2.47;1.23;;;15.80;78.20;;;;;;5051559;28;20033;-73
2022/06/01 10:21:08;;;;;;;4.05;1.60;;;16.10;77.90;;;;;;5050309;28;20565;-72
2022/06/01 10:23:55;;;;;;;3.75;1.50;;;16.60;79.60;;;;;;5052616;28;20040;-77
2022/06/01 10:26:29;;;;;;;3.55;1.50;;;17.10;75.60;;;;;;5052975;28;20505;-72
2022/06/01 10:29:17;;;;;;;5.10;1.45;;;17.10;74.90;;;;;;5033733;28;20029;-71
2022/06/01 10:31:48;;;;;;;4.05;1.17;;;16.90;71.70;;;;;;5051406;28;20036;-70
2022/06/01 10:34:31;;;;;;;2.75;1.15;;;16.50;72.30;;;;;;5050436;28;20029;-71
2022/06/01 10:37:32;;;;;;;1.70;1.08;;;16.20;74.60;;;;;;5051298;28;20551;-71
2022/06/01 10:40:01;;;;;;;2.97;1.10;;;16.00;71.80;;;;;;5037553;28;20052;-76
2022/06/01 10:45:16;;;;;;;2.10;1.13;;;15.80;75.00;;;;;;5052000;28;20501;-78
2022/06/01 10:47:54;;;;;;;4.35;1.58;;;15.90;75.80;;;;;;5051644;28;20034;-72
2022/06/01 10:50:27;;;;;;;3.38;1.40;;;16.00;73.20;;;;;;5059831;28;20028;-72
2022/06/01 10:53:04;;;;;;;4.88;1.90;;;15.90;75.80;;;;;;5071344;28;20060;-76
2022/06/01 10:55:42;;;;;;;5.35;2.00;;;15.90;78.10;;;;;;5070632;28;20032;-71
2022/06/01 10:58:16;;;;;;;3.85;1.98;;;15.70;78.60;;;;;;5070881;28;20055;-71
2022/06/01 11:01:01;;;;;;;5.28;1.92;;;15.50;80.50;;;;;;5070652;28;20028;-71
2022/06/01 11:04:06;;;;;;;4.78;2.15;;;15.40;81.40;;;;;;5070583;28;20683;-73
2022/06/01 11:07:13;;;;;;;4.40;1.70;;;15.40;80.10;;;;;;5061678;28;20572;-72
2022/06/01 11:09:47;;;;;;;5.93;2.15;;;15.30;81.60;;;;;;5071430;28;20028;-71
2022/06/01 11:12:27;;;;;;;4.90;2.08;;;16.50;79.50;;;;;;5072229;28;20028;-73
2022/06/01 11:15:05;;;;;;;5.35;1.73;;;17.60;74.20;;;;;;5071073;28;20047;-72
2022/06/01 11:17:43;;;;;;;4.20;1.88;;;18.20;73.30;;;;;;5070612;28;20402;-71
2022/06/01 11:20:17;;;;;;;5.00;1.90;;;17.70;72.20;;;;;;5071669;28;20050;-73
2022/06/01 11:23:18;;;;;;;5.43;2.67;;;17.20;73.90;;;;;;5072111;28;20043;-74
2022/06/01 11:26:18;;;;;;;4.25;2.22;;;16.70;73.50;;;;;;5070706;28;20078;-71
2022/06/01 11:29:21;;;;;;;5.45;2.30;;;16.30;75.00;;;;;;5071296;28;20048;-78
2022/06/01 11:31:52;;;;;;;5.15;2.20;;;16.10;76.30;;;;;;5072051;28;20123;-73
2022/06/01 11:34:27;;;;;;;4.38;1.73;;;16.00;77.80;;;;;;5072007;28;20063;-74
2022/06/01 11:37:07;;;;;;;4.93;1.75;;;15.90;75.10;;;;;;5053128;28;20774;-73
2022/06/01 11:39:41;;;;;;;4.30;1.48;;;15.90;75.50;;;;;;5069888;28;20056;-72
2022/06/01 11:42:15;;;;;;;2.83;1.60;;;15.90;76.00;;;;;;5068753;28;20577;-71
2022/06/01 11:44:55;;;;;;;6.75;1.58;;;16.00;73.60;;;;;;5070955;28;20028;-71
2022/06/01 11:47:23;;;;;;;3.85;1.70;;;16.30;75.70;;;;;;5070507;28;20068;-71
2022/06/01 11:50:18;;;;;;;4.20;1.40;;;16.80;77.20;;;;;;5068582;28;20144;-73
2022/06/01 11:52:56;;;;;;;3.47;1.45;;;17.50;72.40;;;;;;5069611;28;20110;-73
2022/06/01 11:55:34;;;;;;;3.22;1.30;;;17.60;72.10;;;;;;5051993;28;20032;-72
2022/06/01 11:58:08;;;;;;;3.28;1.70;;;17.40;73.10;;;;;;5070088;28;20032;-71
2022/06/01 12:00:39;;;;;;;3.15;1.65;;;17.10;72.90;;;;;;5066792;28;20044;-71
2022/06/01 12:03:17;;;;;;;4.63;2.13;;;17.10;71.20;;;;;;5050239;28;20060;-73
2022/06/01 12:06:02;;;;;;;4.40;1.48;;;17.00;72.60;;;;;;5050796;28;20033;-74
2022/06/01 12:08:55;;;;;;;3.10;1.60;;;17.30;71.60;;;;;;5049796;28;20031;-77
2022/06/01 12:11:39;;;;;;;6.40;1.70;;;17.40;71.10;;;;;;5038828;28;20048;-73
2022/06/01 12:14:39;;;;;;;5.45;1.75;;;17.30;70.50;;;;;;5049033;28;20036;-73
2022/06/01 12:17:23;;;;;;;5.03;1.90;;;17.40;71.30;;;;;;5049957;28;20041;-75
2022/06/01 12:19:50;;;;;;;4.30;1.48;;;17.60;70.30;;;;;;5049594;28;20025;-73
2022/06/01 12:28:45;;;;;;;4.20;1.50;;;18.20;69.80;;;;;;5050230;28;20403;-74
2022/06/01 12:31:24;;;;;;;4.72;1.55;;;18.50;69.70;;;;;;5050842;28;20029;-72
2022/06/01 12:34:18;;;;;;;5.65;1.80;;;18.60;69.70;;;;;;5049671;28;20570;-73
2022/06/01 12:37:07;;;;;;;3.95;1.73;;;18.70;68.20;;;;;;5049751;28;20043;-72
2022/06/01 12:39:35;;;;;;;;;;;18.50;67.40;;;;;;5050398;28;20138;-73
2022/06/01 12:42:24;;;;;;;3.00;1.38;;;18.50;68.20;;;;;;5048609;28;20355;-75
2022/06/01 12:44:52;;;;;;;4.45;1.42;;;18.30;66.20;;;;;;5048762;28;20029;-72
2022/06/01 12:47:28;;;;;;;4.45;1.50;;;18.00;69.20;;;;;;5048607;28;20045;-74
2022/06/01 12:49:54;;;;;;;4.53;1.50;;;17.70;70.40;;;;;;5049909;28;20061;-73
2022/06/01 12:52:24;;;;;;;4.50;2.08;;;17.50;69.90;;;;;;5047455;28;20597;-72
2022/06/01 12:54:49;;;;;;;4.30;2.03;;;17.30;70.70;;;;;;5049771;28;20032;-71
2022/06/01 12:57:49;;;;;;;7.90;1.98;;;17.00;70.50;;;;;;5050963;28;20033;-72
2022/06/01 13:00:20;;;;;;;;;;;16.80;72.90;;;;;;5031710;28;20072;-72
2022/06/01 13:02:46;;;;;;;4.18;1.85;;;16.60;73.60;;;;;;5048912;28;19958;-70
2022/06/01 13:05:36;;;;;;;4.47;2.00;;;16.40;74.80;;;;;;5048673;28;20060;-73
2022/06/01 13:08:04;;;;;;;4.45;2.33;;;16.20;76.30;;;;;;5048798;28;20033;-73
2022/06/01 13:10:33;;;;;;;6.28;2.70;;;16.00;81.90;;;;;;5030745;28;20025;-74
2022/06/01 13:13:16;;;;;;;6.20;2.90;;;15.80;86.70;;;;;;5030897;28;20040;-74
2022/06/01 13:15:52;;;;;;;5.15;2.75;;;15.50;87.50;;;;;;5030452;28;20037;-76
2022/06/01 13:18:31;;;;;;;6.65;2.90;;;15.30;89.90;;;;;;5030356;28;20585;-72
2022/06/01 13:21:09;;;;;;;5.45;2.95;;;15.20;89.50;;;;;;5048743;28;20075;-74
2022/06/01 13:23:50;;;;;;;5.93;3.15;;;15.10;88.90;;;;;;5048431;28;20037;-73
2022/06/01 13:26:30;;;;;;;5.75;3.05;;;15.00;91.30;;;;;;5030332;28;20065;-72
2022/06/01 13:29:07;;;;;;;6.88;3.50;;;14.80;91.20;;;;;;5048150;28;20486;-73
2022/06/01 13:31:33;;;;;;;6.07;3.28;;;14.70;91.90;;;;;;5048402;28;20035;-72
2022/06/01 13:33:59;;;;;;;6.57;3.80;;;14.60;93.30;;;;;;5030096;28;20483;-76
2022/06/01 13:36:29;;;;;;;6.47;3.95;;;14.50;94.30;;;;;;5030240;28;20127;-73
2022/06/01 13:39:07;;;;;;;6.20;3.80;;;14.40;94.00;;;;;;5047858;28;20036;-74
2022/06/01 13:41:55;;;;;;;7.35;4.30;;;14.30;94.40;;;;;;5048705;28;20033;-74
2022/06/01 13:44:43;;;;;;;7.40;4.80;;;14.20;95.40;;;;;;5031001;28;20112;-73
2022/06/01 13:47:09;;;;;;;7.55;4.53;;;14.00;96.50;;;;;;5030289;28;20031;-74
2022/06/01 13:49:35;;;;;;;8.77;4.80;;;13.80;96.90;;;;;;5047891;28;20035;-75